Time;durP1;ratioP1;P1;durP2;ratioP2;P2;SDS_P1;SDS_P2;PMS_P1;PMS_P2;Temp;Humidity;BMP_temperature;BMP_pressure;BME280_temperature;BME280_humidity;BME280_pressure;Samples;Min_cycle;Max_cycle;Signal;HPM_P1;HPM_P2
2022/09/07 00:01:18;;;;;;;;;;;;;;;;;;5037033;28;1236;-71
2022/09/07 00:03:43;;;;;;;;;;;;;;;;;;5031320;28;1601;-71
2022/09/07 00:06:09;;;;;;;;;;;;;;;;;;5039440;28;1581;-73
2022/09/07 00:08:35;;;;;;;;;;;;;;;;;;5038167;28;2040;-73
2022/09/07 00:11:01;;;;;;;;;;;;;;;;;;5030399;28;1506;-73
2022/09/07 00:13:28;;;;;;;;;;;;;;;;;;5035575;28;1603;-72
2022/09/07 00:15:53;;;;;;;;;;;;;;;;;;5038708;28;1256;-73
2022/09/07 00:18:19;;;;;;;;;;;;;;;;;;5033184;28;1298;-73
2022/09/07 00:20:44;;;;;;;;;;;;;;;;;;5030372;28;1455;-70
2022/09/07 00:23:10;;;;;;;;;;;;;;;;;;5039809;28;1275;-71
2022/09/07 00:25:37;;;;;;;;;;;;;;;;;;5034377;28;1522;-71
2022/09/07 00:28:03;;;;;;;;;;;;;;;;;;5034192;28;1926;-70
2022/09/07 00:30:28;;;;;;;;;;;;;;;;;;5042050;28;1235;-71
2022/09/07 00:32:53;;;;;;;;;;;;;;;;;;5037019;28;1419;-69
2022/09/07 00:35:18;;;;;;;;;;;;;;;;;;5042570;28;1466;-70
2022/09/07 00:37:44;;;;;;;;;;;;;;;;;;5042072;28;1664;-70
2022/09/07 00:40:09;;;;;;;;;;;;;;;;;;5042583;28;1217;-70
2022/09/07 00:42:34;;;;;;;;;;;;;;;;;;5056179;28;1379;-70
2022/09/07 00:44:59;;;;;;;;;;;;;;;;;;5048350;28;1482;-70
2022/09/07 00:47:34;;;;;;;;;;;;;;;;;;5042151;28;1602;-70
2022/09/07 00:50:03;;;;;;;;;;;;;;;;;;5033734;28;1957;-70
2022/09/07 00:52:29;;;;;;;;;;;;;;;;;;5031174;28;1530;-70
2022/09/07 00:54:57;;;;;;;;;;;;;;;;;;5032723;28;1503;-70
2022/09/07 00:57:22;;;;;;;;;;;;;;;;;;5043500;28;1346;-70
2022/09/07 00:59:49;;;;;;;;;;;;;;;;;;5043088;28;1527;-71
2022/09/07 01:02:15;;;;;;;;;;;;;;;;;;5041957;28;1244;-71
2022/09/07 01:04:41;;;;;;;;;;;;;;;;;;5041950;28;1243;-71
2022/09/07 01:07:07;;;;;;;;;;;;;;;;;;5042222;28;1581;-71
2022/09/07 01:09:32;;;;;;;;;;;;;;;;;;5041246;28;1894;-71
2022/09/07 01:11:59;;;;;;;;;;;;;;;;;;5027119;28;1224;-70
2022/09/07 01:14:33;;;;;;;;;;;;;;;;;;5037355;28;1723;-70
2022/09/07 01:17:04;;;;;;;;;;;;;;;;;;5041180;28;1343;-70
2022/09/07 01:19:30;;;;;;;;;;;;;;;;;;5047820;28;1272;-70
2022/09/07 01:22:21;;;;;;;;;;;;;;;;;;5048377;28;1491;-70
2022/09/07 01:24:47;;;;;;;;;;;;;;;;;;5013505;28;1583;-70
2022/09/07 01:27:30;;;;;;;;;;;;;;;;;;5040350;28;1241;-70
2022/09/07 01:29:55;;;;;;;;;;;;;;;;;;5035081;28;1894;-70
2022/09/07 01:32:33;;;;;;;;;;;;;;;;;;5034206;28;1245;-72
2022/09/07 01:34:59;;;;;;;;;;;;;;;;;;5036764;28;1291;-72
2022/09/07 01:37:43;;;;;;;;;;;;;;;;;;5042109;28;1491;-71
2022/09/07 01:40:14;;;;;;;;;;;;;;;;;;5038886;28;1272;-74
2022/09/07 01:42:46;;;;;;;;;;;;;;;;;;5027973;28;1554;-71
2022/09/07 01:45:12;;;;;;;;;;;;;;;;;;5031378;28;1284;-71
2022/09/07 01:47:40;;;;;;;;;;;;;;;;;;5032179;28;1467;-71
2022/09/07 01:50:17;;;;;;;;;;;;;;;;;;5040904;28;1890;-70
2022/09/07 01:52:47;;;;;;;;;;;;;;;;;;5041383;28;1503;-70
2022/09/07 01:55:16;;;;;;;;;;;;;;;;;;5034263;28;1466;-70
2022/09/07 01:57:49;;;;;;;;;;;;;;;;;;5033166;28;1538;-70
2022/09/07 02:00:17;;;;;;;;;;;;;;;;;;5041162;28;1459;-70
2022/09/07 02:02:54;;;;;;;;;;;;;;;;;;5040976;28;1483;-69
2022/09/07 02:05:21;;;;;;;;;;;;;;;;;;5030743;28;1342;-70
2022/09/07 02:07:58;;;;;;;;;;;;;;;;;;5039442;28;1629;-70
2022/09/07 02:10:27;;;;;;;;;;;;;;;;;;5033052;28;1335;-69
2022/09/07 02:12:58;;;;;;;;;;;;;;;;;;5041770;28;1672;-70
2022/09/07 02:15:31;;;;;;;;;;;;;;;;;;5040256;28;1561;-70
2022/09/07 02:18:00;;;;;;;;;;;;;;;;;;5033611;28;1202;-70
2022/09/07 02:20:30;;;;;;;;;;;;;;;;;;5040139;28;1495;-70
2022/09/07 02:22:58;;;;;;;;;;;;;;;;;;5036255;28;1589;-70
2022/09/07 02:25:25;;;;;;;;;;;;;;;;;;5027956;28;1523;-70
2022/09/07 02:27:57;;;;;;;;;;;;;;;;;;5035764;28;1902;-70
2022/09/07 02:30:23;;;;;;;;;;;;;;;;;;5040238;28;1529;-70
2022/09/07 02:32:48;;;;;;;;;;;;;;;;;;5032618;28;1648;-68
2022/09/07 02:35:13;;;;;;;;;;;;;;;;;;5040374;28;1383;-70
2022/09/07 02:37:40;;;;;;;;;;;;;;;;;;5036686;28;1525;-71
2022/09/07 02:40:05;;;;;;;;;;;;;;;;;;5032045;28;1557;-70
2022/09/07 02:42:32;;;;;;;;;;;;;;;;;;5021445;28;787;-70
2022/09/07 02:44:57;;;;;;;;;;;;;;;;;;5039390;28;1506;-68
2022/09/07 02:47:26;;;;;;;;;;;;;;;;;;5040698;28;1271;-65
2022/09/07 02:50:09;;;;;;;;;;;;;;;;;;5037815;28;1892;-65
2022/09/07 02:52:34;;;;;;;;;;;;;;;;;;5032775;28;1581;-66
2022/09/07 02:55:02;;;;;;;;;;;;;;;;;;5038593;28;1700;-66
2022/09/07 02:57:46;;;;;;;;;;;;;;;;;;5039691;28;1630;-65
2022/09/07 03:00:17;;;;;;;;;;;;;;;;;;5040761;28;1483;-65
2022/09/07 03:02:48;;;;;;;;;;;;;;;;;;5048215;28;1529;-66
2022/09/07 03:05:22;;;;;;;;;;;;;;;;;;5043938;28;1485;-66
2022/09/07 03:07:56;;;;;;;;;;;;;;;;;;5040442;28;1781;-66
2022/09/07 03:10:22;;;;;;;;;;;;;;;;;;5039866;28;1518;-66
2022/09/07 03:12:48;;;;;;;;;;;;;;;;;;5032632;28;1462;-66
2022/09/07 03:15:14;;;;;;;;;;;;;;;;;;5039821;28;1546;-66
2022/09/07 03:17:40;;;;;;;;;;;;;;;;;;5040653;28;1565;-66
2022/09/07 03:20:05;;;;;;;;;;;;;;;;;;5041446;28;1581;-66
2022/09/07 03:22:32;;;;;;;;;;;;;;;;;;5045929;28;1350;-69
2022/09/07 03:24:57;;;;;;;;;;;;;;;;;;5039169;28;1613;-68
2022/09/07 03:27:22;;;;;;;;;;;;;;;;;;5035960;28;1279;-68
2022/09/07 03:29:48;;;;;;;;;;;;;;;;;;5037766;28;1902;-69
2022/09/07 03:32:13;;;;;;;;;;;;;;;;;;5036715;28;1342;-69
2022/09/07 03:34:38;;;;;;;;;;;;;;;;;;5038379;28;1248;-69
2022/09/07 03:37:03;;;;;;;;;;;;;;;;;;5035360;28;1625;-69
2022/09/07 03:39:29;;;;;;;;;;;;;;;;;;5038962;28;1558;-69
2022/09/07 03:41:54;;;;;;;;;;;;;;;;;;5036405;28;1490;-69
2022/09/07 03:44:20;;;;;;;;;;;;;;;;;;5029208;28;1295;-69
2022/09/07 03:46:45;;;;;;;;;;;;;;;;;;5036372;28;1279;-69
2022/09/07 03:49:10;;;;;;;;;;;;;;;;;;5040047;28;1902;-70
2022/09/07 03:51:37;;;;;;;;;;;;;;;;;;5039512;28;1598;-69
2022/09/07 03:54:02;;;;;;;;;;;;;;;;;;5039909;28;1585;-71
2022/09/07 03:56:28;;;;;;;;;;;;;;;;;;5039613;28;1537;-70
2022/09/07 03:58:53;;;;;;;;;;;;;;;;;;5041186;28;1422;-69
2022/09/07 04:01:20;;;;;;;;;;;;;;;;;;5043106;28;1367;-69
2022/09/07 04:03:46;;;;;;;;;;;;;;;;;;5043310;28;1466;-69
2022/09/07 04:06:12;;;;;;;;;;;;;;;;;;5039290;28;1275;-69
2022/09/07 04:08:37;;;;;;;;;;;;;;;;;;5037339;28;1910;-69
2022/09/07 04:11:04;;;;;;;;;;;;;;;;;;5044510;28;1288;-70
2022/09/07 04:13:30;;;;;;;;;;;;;;;;;;5042739;28;1566;-70
2022/09/07 04:15:55;;;;;;;;;;;;;;;;;;5041415;28;1613;-70
2022/09/07 04:18:21;;;;;;;;;;;;;;;;;;5043121;28;1284;-71
2022/09/07 04:20:46;;;;;;;;;;;;;;;;;;5042423;28;1774;-71
2022/09/07 04:23:12;;;;;;;;;;;;;;;;;;5034459;28;1402;-70
2022/09/07 04:25:37;;;;;;;;;;;;;;;;;;5041619;28;997;-70
2022/09/07 04:28:03;;;;;;;;;;;;;;;;;;5042377;28;1894;-71
2022/09/07 04:30:28;;;;;;;;;;;;;;;;;;5042250;28;1422;-69
2022/09/07 04:32:53;;;;;;;;;;;;;;;;;;5043226;28;1243;-69
2022/09/07 04:35:18;;;;;;;;;;;;;;;;;;5052814;28;1251;-69
2022/09/07 04:37:44;;;;;;;;;;;;;;;;;;5040923;28;1585;-69
2022/09/07 04:40:10;;;;;;;;;;;;;;;;;;5042940;28;1236;-70
2022/09/07 04:42:35;;;;;;;;;;;;;;;;;;5043359;28;949;-70
2022/09/07 04:45:00;;;;;;;;;;;;;;;;;;5042163;28;1522;-70
2022/09/07 04:47:25;;;;;;;;;;;;;;;;;;5042126;28;1655;-71
2022/09/07 04:49:51;;;;;;;;;;;;;;;;;;5047179;28;1897;-71
2022/09/07 04:52:16;;;;;;;;;;;;;;;;;;5036486;28;1237;-70
2022/09/07 04:54:42;;;;;;;;;;;;;;;;;;5038614;23;3784;-68
2022/09/07 04:57:08;;;;;;;;;;;;;;;;;;5021574;28;1623;-68
2022/09/07 04:59:33;;;;;;;;;;;;;;;;;;5022467;28;1245;-68
2022/09/07 05:01:59;;;;;;;;;;;;;;;;;;5019989;28;1659;-70
2022/09/07 05:04:24;;;;;;;;;;;;;;;;;;5014070;28;1464;-69
2022/09/07 05:06:49;;;;;;;;;;;;;;;;;;4983003;28;1403;-70
2022/09/07 05:09:14;;;;;;;;;;;;;;;;;;5000922;28;1991;-70
2022/09/07 05:11:40;;;;;;;;;;;;;;;;;;5002466;28;1354;-70
2022/09/07 05:14:05;;;;;;;;;;;;;;;;;;5002631;28;1587;-70
2022/09/07 05:16:31;;;;;;;;;;;;;;;;;;5000524;28;1611;-70
2022/09/07 05:18:57;;;;;;;;;;;;;;;;;;4984164;28;1387;-70
2022/09/07 05:21:24;;;;;;;;;;;;;;;;;;5001880;28;1289;-70
2022/09/07 05:23:50;;;;;;;;;;;;;;;;;;4998091;28;1347;-70
2022/09/07 05:26:15;;;;;;;;;;;;;;;;;;5001125;28;1508;-70
2022/09/07 05:28:41;;;;;;;;;;;;;;;;;;5002849;28;1906;-70
2022/09/07 05:31:13;;;;;;;;;;;;;;;;;;5001547;28;1520;-70
2022/09/07 05:33:38;;;;;;;;;;;;;;;;;;5002036;28;1287;-70
2022/09/07 05:36:05;;;;;;;;;;;;;;;;;;5000796;28;1305;-70
2022/09/07 05:38:30;;;;;;;;;;;;;;;;;;5002178;28;1568;-70
2022/09/07 05:40:55;;;;;;;;;;;;;;;;;;5002577;28;1556;-69
2022/09/07 05:43:20;;;;;;;;;;;;;;;;;;5001117;28;1500;-69
2022/09/07 05:45:46;;;;;;;;;;;;;;;;;;5000504;28;1254;-70
2022/09/07 05:48:11;;;;;;;;;;;;;;;;;;5001397;28;1898;-71
2022/09/07 05:50:37;;;;;;;;;;;;;;;;;;4998484;28;1306;-71
2022/09/07 05:53:02;;;;;;;;;;;;;;;;;;4999836;28;1330;-70
2022/09/07 05:55:29;;;;;;;;;;;;;;;;;;4994508;28;1276;-69
2022/09/07 05:57:54;;;;;;;;;;;;;;;;;;4993184;28;1259;-70
2022/09/07 06:00:20;;;;;;;;;;;;;;;;;;4998261;28;1376;-70
2022/09/07 06:02:45;;;;;;;;;;;;;;;;;;5001462;28;1465;-73
2022/09/07 06:05:11;;;;;;;;;;;;;;;;;;5000158;28;1442;-73
2022/09/07 06:07:36;;;;;;;;;;;;;;;;;;5002050;28;1496;-74
2022/09/07 06:10:01;;;;;;;;;;;;;;;;;;5002738;28;1957;-72
2022/09/07 06:12:27;;;;;;;;;;;;;;;;;;5002230;28;1532;-71
2022/09/07 06:14:52;;;;;;;;;;;;;;;;;;4999722;28;1557;-73
2022/09/07 06:17:17;;;;;;;;;;;;;;;;;;5000657;28;1243;-75
2022/09/07 06:19:42;;;;;;;;;;;;;;;;;;5001452;28;1421;-71
2022/09/07 06:22:07;;;;;;;;;;;;;;;;;;5001076;28;1274;-76
2022/09/07 06:24:33;;;;;;;;;;;;;;;;;;5001707;28;1172;-77
2022/09/07 06:26:58;;;;;;;;;;;;;;;;;;5002074;28;811;-77
2022/09/07 06:29:23;;;;;;;;;;;;;;;;;;5002391;28;1898;-78
2022/09/07 06:31:48;;;;;;;;;;;;;;;;;;5001821;28;1457;-75
2022/09/07 06:34:13;;;;;;;;;;;;;;;;;;5002347;28;1184;-75
2022/09/07 06:36:39;;;;;;;;;;;;;;;;;;5001434;28;990;-74
2022/09/07 06:39:04;;;;;;;;;;;;;;;;;;5001669;28;1472;-74
2022/09/07 06:41:29;;;;;;;;;;;;;;;;;;5002161;28;1441;-75
2022/09/07 06:43:55;;;;;;;;;;;;;;;;;;5002276;28;1184;-75
2022/09/07 06:46:21;;;;;;;;;;;;;;;;;;5000978;28;1456;-75
2022/09/07 06:48:46;;;;;;;;;;;;;;;;;;5001988;28;1953;-75
2022/09/07 06:51:17;;;;;;;;;;;;;;;;;;4996651;28;1535;-75
2022/09/07 06:53:43;;;;;;;;;;;;;;;;;;4996895;28;1429;-75
2022/09/07 06:56:11;;;;;;;;;;;;;;;;;;5001192;28;918;-75
2022/09/07 06:58:36;;;;;;;;;;;;;;;;;;5001816;28;933;-77
2022/09/07 07:01:06;;;;;;;;;;;;;;;;;;4984378;28;1197;-75
2022/09/07 07:03:31;;;;;;;;;;;;;;;;;;5001830;28;1227;-74
2022/09/07 07:05:56;;;;;;;;;;;;;;;;;;5001111;28;998;-75
2022/09/07 07:08:23;;;;;;;;;;;;;;;;;;5000865;28;1898;-75
2022/09/07 07:10:48;;;;;;;;;;;;;;;;;;5001827;28;816;-75
2022/09/07 07:13:14;;;;;;;;;;;;;;;;;;5001506;28;930;-75
2022/09/07 07:15:40;;;;;;;;;;;;;;;;;;5000974;28;1235;-75
2022/09/07 07:18:05;;;;;;;;;;;;;;;;;;5001603;28;977;-75
2022/09/07 07:20:30;;;;;;;;;;;;;;;;;;5001444;28;866;-75
2022/09/07 07:22:56;;;;;;;;;;;;;;;;;;5001351;28;1473;-75
2022/09/07 07:25:21;;;;;;;;;;;;;;;;;;5000448;28;1126;-75
2022/09/07 07:27:46;;;;;;;;;;;;;;;;;;5000586;28;1390;-75
2022/09/07 07:30:12;;;;;;;;;;;;;;;;;;5000660;28;1891;-75
2022/09/07 07:32:38;;;;;;;;;;;;;;;;;;5001036;28;831;-75
2022/09/07 07:35:06;;;;;;;;;;;;;;;;;;5003650;28;1244;-75
2022/09/07 07:37:31;;;;;;;;;;;;;;;;;;5003893;28;1498;-75
2022/09/07 07:39:56;;;;;;;;;;;;;;;;;;5004268;28;867;-75
2022/09/07 07:42:22;;;;;;;;;;;;;;;;;;5004060;28;1461;-75
2022/09/07 07:44:47;;;;;;;;;;;;;;;;;;5003662;28;1228;-75
2022/09/07 07:47:12;;;;;;;;;;;;;;;;;;5003425;28;1500;-75
2022/09/07 07:49:37;;;;;;;;;;;;;;;;;;5004204;28;1894;-75
2022/09/07 07:52:05;;;;;;;;;;;;;;;;;;5003972;28;886;-75
2022/09/07 07:54:31;;;;;;;;;;;;;;;;;;5003010;28;1161;-75
2022/09/07 07:56:56;;;;;;;;;;;;;;;;;;5003090;28;1405;-75
2022/09/07 07:59:22;;;;;;;;;;;;;;;;;;5003033;28;796;-75
2022/09/07 08:01:47;;;;;;;;;;;;;;;;;;5002944;28;1434;-75
2022/09/07 08:04:12;;;;;;;;;;;;;;;;;;5002609;28;1465;-75
2022/09/07 08:06:40;;;;;;;;;;;;;;;;;;4984408;28;1612;-75
2022/09/07 08:09:05;;;;;;;;;;;;;;;;;;5002868;28;1902;-75
2022/09/07 08:11:30;;;;;;;;;;;;;;;;;;5003279;28;800;-75
2022/09/07 08:13:58;;;;;;;;;;;;;;;;;;5002972;28;1232;-75
2022/09/07 08:16:24;;;;;;;;;;;;;;;;;;5002392;28;913;-75
2022/09/07 08:18:49;;;;;;;;;;;;;;;;;;5002727;28;1504;-75
2022/09/07 08:21:14;;;;;;;;;;;;;;;;;;5002740;28;831;-75
2022/09/07 08:23:40;;;;;;;;;;;;;;;;;;5002697;28;1251;-75
2022/09/07 08:26:06;;;;;;;;;;;;;;;;;;5001847;28;946;-76
2022/09/07 08:28:32;;;;;;;;;;;;;;;;;;5002530;28;1894;-75
2022/09/07 08:30:58;;;;;;;;;;;;;;;;;;5002234;28;1496;-76
2022/09/07 08:33:23;;;;;;;;;;;;;;;;;;5002144;28;1531;-75
2022/09/07 08:35:55;;;;;;;;;;;;;;;;;;5000907;28;1256;-75
2022/09/07 08:38:20;;;;;;;;;;;;;;;;;;5001182;28;1886;-75
2022/09/07 08:40:46;;;;;;;;;;;;;;;;;;5002489;28;823;-75
2022/09/07 08:43:24;;;;;;;;;;;;;;;;;;5002407;28;776;-75
2022/09/07 08:45:50;;;;;;;;;;;;;;;;;;5001677;28;1192;-75
2022/09/07 08:48:19;;;;;;;;;;;;;;;;;;5001977;28;1002;-75
2022/09/07 08:50:51;;;;;;;;;;;;;;;;;;5002280;28;1465;-76
2022/09/07 08:53:17;;;;;;;;;;;;;;;;;;5001751;28;1293;-76
2022/09/07 08:55:55;;;;;;;;;;;;;;;;;;4965881;28;1058798;-76
2022/09/07 08:58:39;;;;;;;;;;;;;;;;;;5003098;28;1906;-75
2022/09/07 09:01:11;;;;;;;;;;;;;;;;;;5002977;28;1513;-75
2022/09/07 09:03:36;;;;;;;;;;;;;;;;;;5003052;28;1307;-76
2022/09/07 09:06:17;;;;;;;;;;;;;;;;;;5002352;28;1457;-75
2022/09/07 09:08:42;;;;;;;;;;;;;;;;;;5003119;28;1430;-76
2022/09/07 09:11:09;;;;;;;;;;;;;;;;;;5003087;28;895;-75
2022/09/07 09:13:38;;;;;;;;;;;;;;;;;;5002874;28;1331;-76
2022/09/07 09:16:08;;;;;;;;;;;;;;;;;;5002396;28;800;-76
2022/09/07 09:18:39;;;;;;;;;;;;;;;;;;5002702;28;1894;-76
2022/09/07 09:21:11;;;;;;;;;;;;;;;;;;5002818;28;1307;-75
2022/09/07 09:23:39;;;;;;;;;;;;;;;;;;5002828;28;1243;-76
2022/09/07 09:26:10;;;;;;;;;;;;;;;;;;4984199;28;1501;-75
2022/09/07 09:28:36;;;;;;;;;;;;;;;;;;5002587;28;761;-75
2022/09/07 09:31:02;;;;;;;;;;;;;;;;;;5002487;28;1398;-75
2022/09/07 09:33:27;;;;;;;;;;;;;;;;;;5002878;28;812;-75
2022/09/07 09:35:58;;;;;;;;;;;;;;;;;;5001968;28;1256;-75
2022/09/07 09:38:28;;;;;;;;;;;;;;;;;;5002560;28;1956;-75
2022/09/07 09:40:54;;;;;;;;;;;;;;;;;;4984812;28;1453;-75
2022/09/07 09:43:20;;;;;;;;;;;;;;;;;;4984642;28;1379;-75
2022/09/07 09:45:47;;;;;;;;;;;;;;;;;;5001730;28;1279;-75
2022/09/07 09:48:19;;;;;;;;;;;;;;;;;;5002181;28;1528;-75
2022/09/07 09:50:49;;;;;;;;;;;;;;;;;;4984846;28;867;-76
2022/09/07 09:53:22;;;;;;;;;;;;;;;;;;5002270;28;827;-76
2022/09/07 09:55:50;;;;;;;;;;;;;;;;;;5000517;28;1334;-75
2022/09/07 09:58:28;;;;;;;;;;;;;;;;;;5001893;28;1967;-76
2022/09/07 10:01:06;;;;;;;;;;;;;;;;;;5002124;28;867;-76
2022/09/07 10:03:33;;;;;;;;;;;;;;;;;;5001499;28;1594;-76
2022/09/07 10:06:00;;;;;;;;;;;;;;;;;;5001192;28;847;-76
2022/09/07 10:08:27;;;;;;;;;;;;;;;;;;4982707;28;875;-76
2022/09/07 10:11:09;;;;;;;;;;;;;;;;;;5002016;28;1464;-76
2022/09/07 10:13:35;;;;;;;;;;;;;;;;;;5001985;28;1176;-76
2022/09/07 10:16:05;;;;;;;;;;;;;;;;;;5001556;28;839;-75
2022/09/07 10:18:31;;;;;;;;;;;;;;;;;;5001933;28;1968;-75
2022/09/07 10:21:22;;;;;;;;;;;;;;;;;;5001968;28;941;-75
2022/09/07 10:24:03;;;;;;;;;;;;;;;;;;4978571;28;1197;-75
2022/09/07 10:26:35;;;;;;;;;;;;;;;;;;4988594;28;1478;-75
2022/09/07 10:29:16;;;;;;;;;;;;;;;;;;4984069;28;1069;-75
2022/09/07 10:31:50;;;;;;;;;;;;;;;;;;5002102;28;867;-75
2022/09/07 10:34:27;;;;;;;;;;;;;;;;;;5001803;28;1180;-75
2022/09/07 10:37:03;;;;;;;;;;;;;;;;;;5002149;28;1552;-75
2022/09/07 10:39:33;;;;;;;;;;;;;;;;;;5001477;28;1902;-75
2022/09/07 10:42:02;;;;;;;;;;;;;;;;;;5001579;28;1025;-75
2022/09/07 10:44:30;;;;;;;;;;;;;;;;;;5001016;28;1169;-75
2022/09/07 10:47:05;;;;;;;;;;;;;;;;;;5001549;28;1022;-75
2022/09/07 10:49:42;;;;;;;;;;;;;;;;;;5001417;28;933;-75
2022/09/07 10:52:07;;;;;;;;;;;;;;;;;;4999713;28;1422;-75
2022/09/07 10:54:58;;;;;;;;;;;;;;;;;;5000247;28;1414;-78
2022/09/07 10:57:41;;;;;;;;;;;;;;;;;;4998905;28;1469;-71
2022/09/07 11:00:16;;;;;;;;;;;;;;;;;;5001806;28;1977;-71
2022/09/07 11:02:50;;;;;;;;;;;;;;;;;;4982008;28;912;-71
2022/09/07 11:05:19;;;;;;;;;;;;;;;;;;4996631;28;1441;-71
2022/09/07 11:07:59;;;;;;;;;;;;;;;;;;5001411;28;1009;-71
2022/09/07 11:10:43;;;;;;;;;;;;;;;;;;5001788;28;1001;-71
2022/09/07 11:13:11;;;;;;;;;;;;;;;;;;5001340;28;1476;-71
2022/09/07 11:15:41;;;;;;;;;;;;;;;;;;5000805;28;1236;-71
2022/09/07 11:18:11;;;;;;;;;;;;;;;;;;5001583;28;874;-71
2022/09/07 11:20:38;;;;;;;;;;;;;;;;;;5001478;28;1886;-71
2022/09/07 11:23:11;;;;;;;;;;;;;;;;;;5001181;28;1440;-71
2022/09/07 11:25:41;;;;;;;;;;;;;;;;;;5000489;28;1196;-71
2022/09/07 11:28:25;;;;;;;;;;;;;;;;;;5001132;28;922;-71
2022/09/07 11:30:56;;;;;;;;;;;;;;;;;;5001226;28;1468;-71
2022/09/07 11:33:24;;;;;;;;;;;;;;;;;;5001292;28;834;-71
2022/09/07 11:36:01;;;;;;;;;;;;;;;;;;5000785;28;1157;-71
2022/09/07 11:38:33;;;;;;;;;;;;;;;;;;5001147;28;1904;-71
2022/09/07 11:41:16;;;;;;;;;;;;;;;;;;5001124;28;1075;-71
2022/09/07 11:43:44;;;;;;;;;;;;;;;;;;5001233;28;811;-71
2022/09/07 11:46:12;;;;;;;;;;;;;;;;;;5000075;28;1456;-71
2022/09/07 11:48:53;;;;;;;;;;;;;;;;;;5000909;28;1452;-71
2022/09/07 11:51:21;;;;;;;;;;;;;;;;;;5001101;28;1024;-71
2022/09/07 11:53:52;;;;;;;;;;;;;;;;;;5001091;28;799;-71
2022/09/07 11:56:20;;;;;;;;;;;;;;;;;;5000221;28;1255;-71
2022/09/07 11:58:57;;;;;;;;;;;;;;;;;;5000915;28;1886;-71
2022/09/07 12:01:31;;;;;;;;;;;;;;;;;;5000859;28;907;-71
2022/09/07 12:03:56;;;;;;;;;;;;;;;;;;5000447;28;1460;-71
2022/09/07 12:06:21;;;;;;;;;;;;;;;;;;4999675;28;1260;-71
2022/09/07 12:08:52;;;;;;;;;;;;;;;;;;5000515;28;808;-71
2022/09/07 12:11:17;;;;;;;;;;;;;;;;;;5000813;28;910;-71
2022/09/07 12:14:02;;;;;;;;;;;;;;;;;;5000545;28;1453;-71
2022/09/07 12:16:27;;;;;;;;;;;;;;;;;;5000041;28;1184;-71
2022/09/07 12:18:52;;;;;;;;;;;;;;;;;;5001159;28;1949;-71
2022/09/07 12:21:33;;;;;;;;;;;;;;;;;;5003998;28;851;-71
2022/09/07 12:23:58;;;;;;;;;;;;;;;;;;5003840;28;1504;-71
2022/09/07 12:26:33;;;;;;;;;;;;;;;;;;5003013;28;1223;-71
2022/09/07 12:28:58;;;;;;;;;;;;;;;;;;5002414;28;1474;-71
2022/09/07 12:31:42;;;;;;;;;;;;;;;;;;5003702;28;811;-70
2022/09/07 12:34:26;;;;;;;;;;;;;;;;;;5003343;28;812;-70
2022/09/07 12:36:51;;;;;;;;;;;;;;;;;;5003108;28;1488;-72
2022/09/07 12:39:24;;;;;;;;;;;;;;;;;;5003454;28;1974;-72
2022/09/07 12:42:04;;;;;;;;;;;;;;;;;;5003698;28;1420;-73
2022/09/07 12:44:30;;;;;;;;;;;;;;;;;;5002974;28;1255;-72
2022/09/07 12:46:56;;;;;;;;;;;;;;;;;;5003494;28;942;-72
2022/09/07 12:49:29;;;;;;;;;;;;;;;;;;5003733;28;870;-72
2022/09/07 12:52:11;;;;;;;;;;;;;;;;;;5003462;28;1452;-73
2022/09/07 12:54:38;;;;;;;;;;;;;;;;;;5001705;28;1236;-73
2022/09/07 12:57:12;;;;;;;;;;;;;;;;;;5003560;28;981;-73
2022/09/07 12:59:49;;;;;;;;;;;;;;;;;;5003212;28;1897;-73
2022/09/07 13:02:23;;;;;;;;;;;;;;;;;;5003350;28;977;-72
2022/09/07 13:05:07;;;;;;;;;;;;;;;;;;5002590;28;1181;-73
2022/09/07 13:07:51;;;;;;;;;;;;;;;;;;5003304;28;1464;-73
2022/09/07 13:10:22;;;;;;;;;;;;;;;;;;5003228;28;1448;-72
2022/09/07 13:12:49;;;;;;;;;;;;;;;;;;5003155;28;1484;-72
2022/09/07 13:15:31;;;;;;;;;;;;;;;;;;5002318;28;1445;-73
2022/09/07 13:17:57;;;;;;;;;;;;;;;;;;5003638;28;886;-73
2022/09/07 13:20:28;;;;;;;;;;;;;;;;;;5003106;28;1898;-72
2022/09/07 13:22:54;;;;;;;;;;;;;;;;;;5003303;28;886;-72
2022/09/07 13:25:21;;;;;;;;;;;;;;;;;;5002396;28;1164;-73
2022/09/07 13:27:52;;;;;;;;;;;;;;;;;;5003386;28;928;-72
2022/09/07 13:30:22;;;;;;;;;;;;;;;;;;5002162;28;1230;-72
2022/09/07 13:32:47;;;;;;;;;;;;;;;;;;5002629;28;843;-72
2022/09/07 13:35:15;;;;;;;;;;;;;;;;;;5002242;28;1449;-73
2022/09/07 13:37:47;;;;;;;;;;;;;;;;;;5002989;28;1033;-72
2022/09/07 13:40:14;;;;;;;;;;;;;;;;;;5002611;28;1893;-72
2022/09/07 13:42:41;;;;;;;;;;;;;;;;;;5002460;28;830;-72
2022/09/07 13:45:25;;;;;;;;;;;;;;;;;;5001945;28;1192;-73
2022/09/07 13:47:53;;;;;;;;;;;;;;;;;;5002268;28;1476;-73
2022/09/07 13:50:36;;;;;;;;;;;;;;;;;;5002800;28;1511;-72
2022/09/07 13:53:01;;;;;;;;;;;;;;;;;;5003040;28;875;-73
2022/09/07 13:55:32;;;;;;;;;;;;;;;;;;5001894;28;1188;-73
2022/09/07 13:58:04;;;;;;;;;;;;;;;;;;5002577;28;981;-73
2022/09/07 14:00:29;;;;;;;;;;;;;;;;;;5002527;28;1952;-73
2022/09/07 14:02:59;;;;;;;;;;;;;;;;;;5002158;28;1421;-73
2022/09/07 14:05:24;;;;;;;;;;;;;;;;;;4982435;28;1279;-72
2022/09/07 14:07:49;;;;;;;;;;;;;;;;;;4987126;28;1453;-72
2022/09/07 14:10:20;;;;;;;;;;;;;;;;;;5002451;28;831;-72
2022/09/07 14:12:47;;;;;;;;;;;;;;;;;;5001036;28;914;-72
2022/09/07 14:15:26;;;;;;;;;;;;;;;;;;5001758;28;1126;-72
2022/09/07 14:18:00;;;;;;;;;;;;;;;;;;5002408;28;1464;-72
2022/09/07 14:20:26;;;;;;;;;;;;;;;;;;5002528;28;1957;-72
2022/09/07 14:22:52;;;;;;;;;;;;;;;;;;5001909;28;1514;-72
2022/09/07 14:25:18;;;;;;;;;;;;;;;;;;5001610;28;1200;-72
2022/09/07 14:27:45;;;;;;;;;;;;;;;;;;5000222;28;856;-72
2022/09/07 14:30:22;;;;;;;;;;;;;;;;;;5002498;28;934;-72
2022/09/07 14:32:48;;;;;;;;;;;;;;;;;;5001997;28;910;-72
2022/09/07 14:35:15;;;;;;;;;;;;;;;;;;5001514;28;1252;-72
2022/09/07 14:37:40;;;;;;;;;;;;;;;;;;5001759;28;1528;-72
2022/09/07 14:40:11;;;;;;;;;;;;;;;;;;5002114;28;1898;-72
2022/09/07 14:42:40;;;;;;;;;;;;;;;;;;4990621;28;1359;-71
2022/09/07 14:45:15;;;;;;;;;;;;;;;;;;4992654;28;1381;-71
2022/09/07 14:47:40;;;;;;;;;;;;;;;;;;4991153;28;1319;-71
2022/09/07 14:50:15;;;;;;;;;;;;;;;;;;4997145;28;1281;-71
2022/09/07 14:52:40;;;;;;;;;;;;;;;;;;4990441;28;1117;-71
2022/09/07 14:55:26;;;;;;;;;;;;;;;;;;4981484;28;1287;-71
2022/09/07 14:58:08;;;;;;;;;;;;;;;;;;5004697;28;1395;-71
2022/09/07 15:00:33;;;;;;;;;;;;;;;;;;5001307;28;1894;-71
2022/09/07 15:02:58;;;;;;;;;;;;;;;;;;5001275;28;1063;-71
2022/09/07 15:05:27;;;;;;;;;;;;;;;;;;5015086;28;1504;-71
2022/09/07 15:08:00;;;;;;;;;;;;;;;;;;4996918;28;1186;-71
2022/09/07 15:10:30;;;;;;;;;;;;;;;;;;5001839;28;842;-71
2022/09/07 15:12:57;;;;;;;;;;;;;;;;;;5000285;28;875;-70
2022/09/07 15:15:25;;;;;;;;;;;;;;;;;;5000362;28;1492;-70
2022/09/07 15:17:51;;;;;;;;;;;;;;;;;;5001565;28;902;-71
2022/09/07 15:20:52;;;;;;;;;;;;;;;;;;5001258;28;1955;-71
2022/09/07 15:23:17;;;;;;;;;;;;;;;;;;4940391;29;1584;-71
2022/09/07 15:25:44;;;;;;;;;;;;;;;;;;4972699;28;1265;-71
2022/09/07 15:28:30;;;;;;;;;;;;;;;;;;4981894;28;791;-71
2022/09/07 15:30:55;;;;;;;;;;;;;;;;;;4997113;28;1594;-70
2022/09/07 15:33:20;;;;;;;;;;;;;;;;;;4981993;28;1069;-71
2022/09/07 15:35:49;;;;;;;;;;;;;;;;;;4981080;28;1264;-71
2022/09/07 15:38:14;;;;;;;;;;;;;;;;;;4981792;28;815;-70
2022/09/07 15:40:48;;;;;;;;;;;;;;;;;;4995681;28;1898;-72
2022/09/07 15:43:14;;;;;;;;;;;;;;;;;;5001096;28;822;-72
2022/09/07 15:45:39;;;;;;;;;;;;;;;;;;5000414;28;1180;-71
2022/09/07 15:48:04;;;;;;;;;;;;;;;;;;5011488;28;899;-72
2022/09/07 15:50:29;;;;;;;;;;;;;;;;;;5005585;28;1392;-71
2022/09/07 15:52:55;;;;;;;;;;;;;;;;;;4989310;28;1145;-71
2022/09/07 15:55:20;;;;;;;;;;;;;;;;;;4986284;28;1711;-72
2022/09/07 15:57:45;;;;;;;;;;;;;;;;;;5004685;28;1001;-71
2022/09/07 16:00:11;;;;;;;;;;;;;;;;;;5001805;28;1970;-70
2022/09/07 16:02:38;;;;;;;;;;;;;;;;;;4998386;28;1592;-68
2022/09/07 16:05:03;;;;;;;;;;;;;;;;;;4988330;28;1390;-71
2022/09/07 16:07:28;;;;;;;;;;;;;;;;;;5004363;28;1127;-71
2022/09/07 16:09:54;;;;;;;;;;;;;;;;;;4999606;28;1529;-71
2022/09/07 16:12:19;;;;;;;;;;;;;;;;;;5004305;28;799;-71
2022/09/07 16:14:45;;;;;;;;;;;;;;;;;;5002289;28;1385;-71
2022/09/07 16:17:10;;;;;;;;;;;;;;;;;;4985485;28;1430;-71
2022/09/07 16:19:35;;;;;;;;;;;;;;;;;;5001193;28;1898;-71
2022/09/07 16:22:00;;;;;;;;;;;;;;;;;;4998878;28;1379;-72
2022/09/07 16:24:27;;;;;;;;;;;;;;;;;;4996071;28;1504;-71
2022/09/07 16:26:52;;;;;;;;;;;;;;;;;;4999870;28;1232;-71
2022/09/07 16:29:17;;;;;;;;;;;;;;;;;;5003780;28;1413;-75
2022/09/07 16:31:42;;;;;;;;;;;;;;;;;;5013044;28;1260;-75
2022/09/07 16:34:08;;;;;;;;;;;;;;;;;;4984339;28;803;-75
2022/09/07 16:36:33;;;;;;;;;;;;;;;;;;4983705;28;1188;-75
2022/09/07 16:38:59;;;;;;;;;;;;;;;;;;5003625;28;1890;-75
2022/09/07 16:41:29;;;;;;;;;;;;;;;;;;5023552;28;996;-74
2022/09/07 16:43:55;;;;;;;;;;;;;;;;;;5010091;28;1443;-75
2022/09/07 16:46:21;;;;;;;;;;;;;;;;;;4987719;28;1230;-75
2022/09/07 16:48:46;;;;;;;;;;;;;;;;;;5003447;28;818;-75
2022/09/07 16:51:12;;;;;;;;;;;;;;;;;;5003634;28;994;-75
2022/09/07 16:53:37;;;;;;;;;;;;;;;;;;5003419;28;1402;-75
2022/09/07 16:56:04;;;;;;;;;;;;;;;;;;5002807;28;1272;-75
2022/09/07 16:58:32;;;;;;;;;;;;;;;;;;4990049;28;1953;-75
2022/09/07 17:00:58;;;;;;;;;;;;;;;;;;5002008;28;1342;-74
2022/09/07 17:03:23;;;;;;;;;;;;;;;;;;5003211;28;812;-75
2022/09/07 17:05:48;;;;;;;;;;;;;;;;;;5002268;28;1440;-75
2022/09/07 17:08:13;;;;;;;;;;;;;;;;;;5003546;28;993;-75
2022/09/07 17:10:38;;;;;;;;;;;;;;;;;;5003312;28;851;-75
2022/09/07 17:13:04;;;;;;;;;;;;;;;;;;5013142;28;903;-75
2022/09/07 17:15:31;;;;;;;;;;;;;;;;;;5001401;28;1424;-74